sensor_id;sensor_type;location;lat;lon;timestamp;temperature;humidity
34406;DHT22;20658;45.630;8.886;2023-09-19T00:01:34;18.30;99.90
34406;DHT22;20658;45.630;8.886;2023-09-19T00:04:04;18.30;99.90
34406;DHT22;20658;45.630;8.886;2023-09-19T00:06:36;18.30;99.90
34406;DHT22;20658;45.630;8.886;2023-09-19T00:09:05;18.20;99.90
34406;DHT22;20658;45.630;8.886;2023-09-19T00:11:37;18.20;99.90
34406;DHT22;20658;45.630;8.886;2023-09-19T00:14:07;18.10;99.90
34406;DHT22;20658;45.630;8.886;2023-09-19T00:16:36;18.10;99.90
34406;DHT22;20658;45.630;8.886;2023-09-19T00:19:05;18.10;99.90
34406;DHT22;20658;45.630;8.886;2023-09-19T00:21:35;18.10;99.90
34406;DHT22;20658;45.630;8.886;2023-09-19T00:24:05;18.10;99.90
34406;DHT22;20658;45.630;8.886;2023-09-19T00:26:35;18.10;99.90
34406;DHT22;20658;45.630;8.886;2023-09-19T00:29:06;18.10;99.90
34406;DHT22;20658;45.630;8.886;2023-09-19T00:31:35;18.00;99.90
34406;DHT22;20658;45.630;8.886;2023-09-19T00:34:04;18.10;99.90
34406;DHT22;20658;45.630;8.886;2023-09-19T00:36:33;18.00;99.90
34406;DHT22;20658;45.630;8.886;2023-09-19T00:39:02;18.00;99.90
34406;DHT22;20658;45.630;8.886;2023-09-19T00:41:32;18.00;99.90
34406;DHT22;20658;45.630;8.886;2023-09-19T00:44:02;18.00;99.90
34406;DHT22;20658;45.630;8.886;2023-09-19T00:46:33;18.00;99.90
34406;DHT22;20658;45.630;8.886;2023-09-19T00:49:02;18.00;99.90
34406;DHT22;20658;45.630;8.886;2023-09-19T00:51:30;18.00;99.90
34406;DHT22;20658;45.630;8.886;2023-09-19T00:53:59;17.90;99.90
34406;DHT22;20658;45.630;8.886;2023-09-19T00:56:28;17.90;99.90
34406;DHT22;20658;45.630;8.886;2023-09-19T00:58:57;17.90;99.90
34406;DHT22;20658;45.630;8.886;2023-09-19T01:01:27;17.90;99.90
34406;DHT22;20658;45.630;8.886;2023-09-19T01:03:57;17.90;99.90
34406;DHT22;20658;45.630;8.886;2023-09-19T01:06:26;17.90;99.90
34406;DHT22;20658;45.630;8.886;2023-09-19T01:08:54;17.90;99.90
34406;DHT22;20658;45.630;8.886;2023-09-19T01:11:31;17.90;99.90
34406;DHT22;20658;45.630;8.886;2023-09-19T01:14:11;17.90;99.90
34406;DHT22;20658;45.630;8.886;2023-09-19T01:16:50;17.80;99.90
34406;DHT22;20658;45.630;8.886;2023-09-19T01:19:56;17.80;99.90
34406;DHT22;20658;45.630;8.886;2023-09-19T01:22:46;17.80;99.90
34406;DHT22;20658;45.630;8.886;2023-09-19T01:25:50;17.80;99.90
34406;DHT22;20658;45.630;8.886;2023-09-19T01:28:46;17.80;99.90
34406;DHT22;20658;45.630;8.886;2023-09-19T01:31:24;17.80;99.90
34406;DHT22;20658;45.630;8.886;2023-09-19T01:33:58;17.80;99.90
34406;DHT22;20658;45.630;8.886;2023-09-19T01:36:30;17.80;99.90
34406;DHT22;20658;45.630;8.886;2023-09-19T01:39:08;17.70;99.90
34406;DHT22;20658;45.630;8.886;2023-09-19T01:42:04;17.70;99.90
34406;DHT22;20658;45.630;8.886;2023-09-19T01:44:44;17.70;99.90
34406;DHT22;20658;45.630;8.886;2023-09-19T01:47:32;17.70;99.90
34406;DHT22;20658;45.630;8.886;2023-09-19T01:50:10;17.70;99.90
34406;DHT22;20658;45.630;8.886;2023-09-19T01:52:47;17.70;99.90
34406;DHT22;20658;45.630;8.886;2023-09-19T01:55:22;17.70;99.90
34406;DHT22;20658;45.630;8.886;2023-09-19T01:58:01;17.60;99.90
34406;DHT22;20658;45.630;8.886;2023-09-19T02:00:41;17.60;99.90
34406;DHT22;20658;45.630;8.886;2023-09-19T02:03:13;17.50;99.90
34406;DHT22;20658;45.630;8.886;2023-09-19T02:05:48;17.50;99.90
34406;DHT22;20658;45.630;8.886;2023-09-19T02:08:19;17.50;99.90
34406;DHT22;20658;45.630;8.886;2023-09-19T02:10:50;17.50;99.90
34406;DHT22;20658;45.630;8.886;2023-09-19T02:13:20;17.50;99.90
34406;DHT22;20658;45.630;8.886;2023-09-19T02:15:50;17.50;99.90
34406;DHT22;20658;45.630;8.886;2023-09-19T02:18:20;17.50;99.90
34406;DHT22;20658;45.630;8.886;2023-09-19T02:20:49;17.50;99.90
34406;DHT22;20658;45.630;8.886;2023-09-19T02:23:25;17.50;99.90
34406;DHT22;20658;45.630;8.886;2023-09-19T02:25:59;17.50;99.90
34406;DHT22;20658;45.630;8.886;2023-09-19T02:28:33;17.50;99.90
34406;DHT22;20658;45.630;8.886;2023-09-19T02:31:08;17.50;99.90
34406;DHT22;20658;45.630;8.886;2023-09-19T02:33:39;17.50;99.90
34406;DHT22;20658;45.630;8.886;2023-09-19T02:36:12;17.50;99.90
34406;DHT22;20658;45.630;8.886;2023-09-19T02:38:44;17.40;99.90
34406;DHT22;20658;45.630;8.886;2023-09-19T02:41:12;17.40;99.90
34406;DHT22;20658;45.630;8.886;2023-09-19T02:43:41;17.40;99.90
34406;DHT22;20658;45.630;8.886;2023-09-19T02:46:10;17.40;99.90
34406;DHT22;20658;45.630;8.886;2023-09-19T02:48:46;17.40;99.90
34406;DHT22;20658;45.630;8.886;2023-09-19T02:51:19;17.40;99.90
34406;DHT22;20658;45.630;8.886;2023-09-19T02:53:53;17.30;99.90
34406;DHT22;20658;45.630;8.886;2023-09-19T02:56:27;17.30;99.90
34406;DHT22;20658;45.630;8.886;2023-09-19T02:59:01;17.30;99.90
34406;DHT22;20658;45.630;8.886;2023-09-19T03:01:36;17.30;99.90
34406;DHT22;20658;45.630;8.886;2023-09-19T03:04:06;17.30;99.90
34406;DHT22;20658;45.630;8.886;2023-09-19T03:06:35;17.30;99.90
34406;DHT22;20658;45.630;8.886;2023-09-19T03:09:05;17.30;99.90
34406;DHT22;20658;45.630;8.886;2023-09-19T03:11:44;17.20;99.90
34406;DHT22;20658;45.630;8.886;2023-09-19T03:14:13;17.20;99.90
34406;DHT22;20658;45.630;8.886;2023-09-19T03:16:42;17.20;99.90
34406;DHT22;20658;45.630;8.886;2023-09-19T03:19:14;17.20;99.90
34406;DHT22;20658;45.630;8.886;2023-09-19T03:21:44;17.20;99.90
34406;DHT22;20658;45.630;8.886;2023-09-19T03:24:12;17.20;99.90
34406;DHT22;20658;45.630;8.886;2023-09-19T03:26:41;17.10;99.90
34406;DHT22;20658;45.630;8.886;2023-09-19T03:29:10;17.10;99.90
34406;DHT22;20658;45.630;8.886;2023-09-19T03:31:41;17.20;99.90
34406;DHT22;20658;45.630;8.886;2023-09-19T03:34:16;17.10;99.90
34406;DHT22;20658;45.630;8.886;2023-09-19T03:36:49;17.10;99.90
34406;DHT22;20658;45.630;8.886;2023-09-19T03:39:18;17.10;99.90
34406;DHT22;20658;45.630;8.886;2023-09-19T03:41:47;17.10;99.90
34406;DHT22;20658;45.630;8.886;2023-09-19T03:44:21;17.10;99.90
34406;DHT22;20658;45.630;8.886;2023-09-19T03:46:55;17.00;99.90
34406;DHT22;20658;45.630;8.886;2023-09-19T03:49:25;17.00;99.90
34406;DHT22;20658;45.630;8.886;2023-09-19T03:51:53;17.00;99.90
34406;DHT22;20658;45.630;8.886;2023-09-19T03:54:22;17.00;99.90
34406;DHT22;20658;45.630;8.886;2023-09-19T03:56:51;17.00;99.90
34406;DHT22;20658;45.630;8.886;2023-09-19T03:59:20;17.00;99.90
34406;DHT22;20658;45.630;8.886;2023-09-19T04:01:54;17.00;99.90
34406;DHT22;20658;45.630;8.886;2023-09-19T04:04:30;16.90;99.90
34406;DHT22;20658;45.630;8.886;2023-09-19T04:07:03;16.90;99.90
34406;DHT22;20658;45.630;8.886;2023-09-19T04:09:37;16.80;99.90
34406;DHT22;20658;45.630;8.886;2023-09-19T04:12:11;16.80;99.90
34406;DHT22;20658;45.630;8.886;2023-09-19T04:14:39;16.80;99.90
34406;DHT22;20658;45.630;8.886;2023-09-19T04:17:08;16.80;99.90
34406;DHT22;20658;45.630;8.886;2023-09-19T04:19:39;16.80;99.90
34406;DHT22;20658;45.630;8.886;2023-09-19T04:22:08;16.80;99.90
34406;DHT22;20658;45.630;8.886;2023-09-19T04:24:43;16.80;99.90
34406;DHT22;20658;45.630;8.886;2023-09-19T04:27:12;16.80;99.90
34406;DHT22;20658;45.630;8.886;2023-09-19T04:29:41;16.80;99.90
34406;DHT22;20658;45.630;8.886;2023-09-19T04:32:11;16.70;99.90
34406;DHT22;20658;45.630;8.886;2023-09-19T04:34:46;16.70;99.90
34406;DHT22;20658;45.630;8.886;2023-09-19T04:37:17;16.80;99.90
34406;DHT22;20658;45.630;8.886;2023-09-19T04:39:45;16.70;99.90
34406;DHT22;20658;45.630;8.886;2023-09-19T04:42:14;16.70;99.90
34406;DHT22;20658;45.630;8.886;2023-09-19T04:44:47;16.70;99.90
34406;DHT22;20658;45.630;8.886;2023-09-19T04:47:17;16.70;99.90
34406;DHT22;20658;45.630;8.886;2023-09-19T04:49:47;16.70;99.90
34406;DHT22;20658;45.630;8.886;2023-09-19T04:52:15;16.70;99.90
34406;DHT22;20658;45.630;8.886;2023-09-19T04:54:44;16.70;99.90
34406;DHT22;20658;45.630;8.886;2023-09-19T04:57:17;16.70;99.90
34406;DHT22;20658;45.630;8.886;2023-09-19T04:59:46;16.70;99.90
34406;DHT22;20658;45.630;8.886;2023-09-19T05:02:20;16.70;99.90
34406;DHT22;20658;45.630;8.886;2023-09-19T05:04:50;16.70;99.90
34406;DHT22;20658;45.630;8.886;2023-09-19T05:07:25;16.80;99.90
34406;DHT22;20658;45.630;8.886;2023-09-19T05:09:59;16.80;99.90
34406;DHT22;20658;45.630;8.886;2023-09-19T05:12:27;16.80;99.90
34406;DHT22;20658;45.630;8.886;2023-09-19T05:14:56;16.80;99.90
34406;DHT22;20658;45.630;8.886;2023-09-19T05:17:30;16.80;99.90
34406;DHT22;20658;45.630;8.886;2023-09-19T05:20:07;16.80;99.90
34406;DHT22;20658;45.630;8.886;2023-09-19T05:22:44;16.80;99.90
34406;DHT22;20658;45.630;8.886;2023-09-19T05:25:13;16.90;99.90
34406;DHT22;20658;45.630;8.886;2023-09-19T05:27:48;16.90;99.90
34406;DHT22;20658;45.630;8.886;2023-09-19T05:30:22;16.90;99.90
34406;DHT22;20658;45.630;8.886;2023-09-19T05:32:51;17.00;99.90
34406;DHT22;20658;45.630;8.886;2023-09-19T05:35:26;17.00;99.90
34406;DHT22;20658;45.630;8.886;2023-09-19T05:37:54;17.00;99.90
34406;DHT22;20658;45.630;8.886;2023-09-19T05:40:23;17.00;99.90
34406;DHT22;20658;45.630;8.886;2023-09-19T05:42:52;17.00;99.90
34406;DHT22;20658;45.630;8.886;2023-09-19T05:45:20;17.10;99.90
34406;DHT22;20658;45.630;8.886;2023-09-19T05:47:50;17.20;99.90
34406;DHT22;20658;45.630;8.886;2023-09-19T05:50:29;17.20;99.90
34406;DHT22;20658;45.630;8.886;2023-09-19T05:52:59;17.30;99.90
34406;DHT22;20658;45.630;8.886;2023-09-19T05:55:27;17.40;99.90
34406;DHT22;20658;45.630;8.886;2023-09-19T05:57:56;17.50;99.90
34406;DHT22;20658;45.630;8.886;2023-09-19T06:00:30;17.60;99.90
34406;DHT22;20658;45.630;8.886;2023-09-19T06:03:04;17.60;99.90
34406;DHT22;20658;45.630;8.886;2023-09-19T06:05:39;17.60;99.90
34406;DHT22;20658;45.630;8.886;2023-09-19T06:08:08;17.60;99.90
34406;DHT22;20658;45.630;8.886;2023-09-19T06:10:37;17.60;99.90
34406;DHT22;20658;45.630;8.886;2023-09-19T06:13:10;17.70;99.90
34406;DHT22;20658;45.630;8.886;2023-09-19T06:15:39;17.80;99.90
34406;DHT22;20658;45.630;8.886;2023-09-19T06:18:13;17.90;99.90
34406;DHT22;20658;45.630;8.886;2023-09-19T06:20:48;17.90;99.90
34406;DHT22;20658;45.630;8.886;2023-09-19T06:23:18;17.90;99.90
34406;DHT22;20658;45.630;8.886;2023-09-19T06:25:49;18.00;99.90
34406;DHT22;20658;45.630;8.886;2023-09-19T06:28:18;18.20;99.90
34406;DHT22;20658;45.630;8.886;2023-09-19T06:30:50;18.20;99.90
34406;DHT22;20658;45.630;8.886;2023-09-19T06:33:20;18.40;99.90
34406;DHT22;20658;45.630;8.886;2023-09-19T06:35:50;18.40;99.90
34406;DHT22;20658;45.630;8.886;2023-09-19T06:38:20;18.50;99.90
34406;DHT22;20658;45.630;8.886;2023-09-19T06:40:49;18.60;99.90
34406;DHT22;20658;45.630;8.886;2023-09-19T06:43:22;18.60;99.90
34406;DHT22;20658;45.630;8.886;2023-09-19T06:45:56;18.70;99.90
34406;DHT22;20658;45.630;8.886;2023-09-19T06:48:26;18.80;99.90
34406;DHT22;20658;45.630;8.886;2023-09-19T06:50:57;18.90;99.90
34406;DHT22;20658;45.630;8.886;2023-09-19T06:53:34;19.00;99.90
34406;DHT22;20658;45.630;8.886;2023-09-19T06:56:03;19.20;99.90
34406;DHT22;20658;45.630;8.886;2023-09-19T06:58:32;19.20;99.90
34406;DHT22;20658;45.630;8.886;2023-09-19T07:01:08;19.30;99.90
34406;DHT22;20658;45.630;8.886;2023-09-19T07:03:42;19.60;99.90
34406;DHT22;20658;45.630;8.886;2023-09-19T07:06:19;19.70;99.90
34406;DHT22;20658;45.630;8.886;2023-09-19T07:08:47;19.70;99.90
34406;DHT22;20658;45.630;8.886;2023-09-19T07:11:22;19.80;99.90
34406;DHT22;20658;45.630;8.886;2023-09-19T07:13:51;19.90;99.90
34406;DHT22;20658;45.630;8.886;2023-09-19T07:16:20;20.10;99.90
34406;DHT22;20658;45.630;8.886;2023-09-19T07:19:01;20.30;99.90
34406;DHT22;20658;45.630;8.886;2023-09-19T07:21:31;20.40;99.90
34406;DHT22;20658;45.630;8.886;2023-09-19T07:24:07;20.40;99.90
34406;DHT22;20658;45.630;8.886;2023-09-19T07:26:41;20.50;99.90
34406;DHT22;20658;45.630;8.886;2023-09-19T07:29:15;20.60;99.90
34406;DHT22;20658;45.630;8.886;2023-09-19T07:31:43;20.50;99.90
34406;DHT22;20658;45.630;8.886;2023-09-19T07:34:14;20.60;99.90
34406;DHT22;20658;45.630;8.886;2023-09-19T07:36:44;20.70;99.90
34406;DHT22;20658;45.630;8.886;2023-09-19T07:39:19;20.70;99.90
34406;DHT22;20658;45.630;8.886;2023-09-19T07:41:53;20.70;99.90
34406;DHT22;20658;45.630;8.886;2023-09-19T07:44:27;20.80;99.90
34406;DHT22;20658;45.630;8.886;2023-09-19T07:47:00;20.90;99.90
34406;DHT22;20658;45.630;8.886;2023-09-19T07:49:30;21.20;99.90
34406;DHT22;20658;45.630;8.886;2023-09-19T07:52:00;21.20;99.90
34406;DHT22;20658;45.630;8.886;2023-09-19T07:54:34;21.30;99.90
34406;DHT22;20658;45.630;8.886;2023-09-19T07:57:04;21.30;99.90
34406;DHT22;20658;45.630;8.886;2023-09-19T07:59:32;21.20;99.90
34406;DHT22;20658;45.630;8.886;2023-09-19T08:02:01;21.30;99.90
34406;DHT22;20658;45.630;8.886;2023-09-19T08:04:31;21.40;99.90
34406;DHT22;20658;45.630;8.886;2023-09-19T08:07:07;21.60;99.90
34406;DHT22;20658;45.630;8.886;2023-09-19T08:09:40;21.90;99.90
34406;DHT22;20658;45.630;8.886;2023-09-19T08:12:13;22.20;99.90
34406;DHT22;20658;45.630;8.886;2023-09-19T08:14:47;22.10;99.90
34406;DHT22;20658;45.630;8.886;2023-09-19T08:17:15;22.20;99.90
34406;DHT22;20658;45.630;8.886;2023-09-19T08:19:45;22.30;99.90
34406;DHT22;20658;45.630;8.886;2023-09-19T08:22:20;22.20;99.90
34406;DHT22;20658;45.630;8.886;2023-09-19T08:24:50;22.10;99.90
34406;DHT22;20658;45.630;8.886;2023-09-19T08:27:24;22.30;99.90
34406;DHT22;20658;45.630;8.886;2023-09-19T08:29:53;22.40;99.90
34406;DHT22;20658;45.630;8.886;2023-09-19T08:32:22;22.40;99.90
34406;DHT22;20658;45.630;8.886;2023-09-19T08:34:52;22.60;99.90
34406;DHT22;20658;45.630;8.886;2023-09-19T08:37:27;22.60;99.90
34406;DHT22;20658;45.630;8.886;2023-09-19T08:39:56;22.80;99.90
34406;DHT22;20658;45.630;8.886;2023-09-19T08:42:25;22.90;99.90
34406;DHT22;20658;45.630;8.886;2023-09-19T08:44:59;23.00;99.90
34406;DHT22;20658;45.630;8.886;2023-09-19T08:47:39;23.20;99.90
34406;DHT22;20658;45.630;8.886;2023-09-19T08:50:19;23.30;99.90
34406;DHT22;20658;45.630;8.886;2023-09-19T08:53:01;23.30;99.90
34406;DHT22;20658;45.630;8.886;2023-09-19T08:55:30;23.50;99.90
34406;DHT22;20658;45.630;8.886;2023-09-19T08:58:02;23.60;99.90
34406;DHT22;20658;45.630;8.886;2023-09-19T09:00:34;23.60;99.90
34406;DHT22;20658;45.630;8.886;2023-09-19T09:03:03;23.60;99.90
34406;DHT22;20658;45.630;8.886;2023-09-19T09:05:35;23.80;99.90
34406;DHT22;20658;45.630;8.886;2023-09-19T09:08:09;23.80;99.20
34406;DHT22;20658;45.630;8.886;2023-09-19T09:10:38;23.40;98.10
34406;DHT22;20658;45.630;8.886;2023-09-19T09:13:07;23.50;98.20
34406;DHT22;20658;45.630;8.886;2023-09-19T09:15:41;23.50;98.00
34406;DHT22;20658;45.630;8.886;2023-09-19T09:18:11;23.70;96.90
34406;DHT22;20658;45.630;8.886;2023-09-19T09:20:40;23.70;95.00
34406;DHT22;20658;45.630;8.886;2023-09-19T09:23:10;24.10;95.20
34406;DHT22;20658;45.630;8.886;2023-09-19T09:25:50;24.10;93.20
34406;DHT22;20658;45.630;8.886;2023-09-19T09:28:46;24.20;93.00
34406;DHT22;20658;45.630;8.886;2023-09-19T09:31:25;24.20;94.00
34406;DHT22;20658;45.630;8.886;2023-09-19T09:33:54;24.40;93.60
34406;DHT22;20658;45.630;8.886;2023-09-19T09:36:35;24.60;92.20
34406;DHT22;20658;45.630;8.886;2023-09-19T09:39:11;24.70;90.10
34406;DHT22;20658;45.630;8.886;2023-09-19T09:41:51;24.80;89.80
34406;DHT22;20658;45.630;8.886;2023-09-19T09:44:20;24.70;88.60
34406;DHT22;20658;45.630;8.886;2023-09-19T09:46:53;24.60;88.30
34406;DHT22;20658;45.630;8.886;2023-09-19T09:49:50;24.60;88.00
34406;DHT22;20658;45.630;8.886;2023-09-19T09:52:44;24.60;87.50
34406;DHT22;20658;45.630;8.886;2023-09-19T09:55:20;24.70;87.40
34406;DHT22;20658;45.630;8.886;2023-09-19T09:58:16;24.70;85.80
34406;DHT22;20658;45.630;8.886;2023-09-19T10:00:52;24.80;85.90
34406;DHT22;20658;45.630;8.886;2023-09-19T10:03:34;25.00;86.70
34406;DHT22;20658;45.630;8.886;2023-09-19T10:06:07;25.20;84.70
34406;DHT22;20658;45.630;8.886;2023-09-19T10:08:59;25.10;82.50
34406;DHT22;20658;45.630;8.886;2023-09-19T10:11:41;25.10;83.30
34406;DHT22;20658;45.630;8.886;2023-09-19T10:14:16;25.20;83.30
34406;DHT22;20658;45.630;8.886;2023-09-19T10:16:54;25.20;82.80
34406;DHT22;20658;45.630;8.886;2023-09-19T10:19:37;25.50;81.80
34406;DHT22;20658;45.630;8.886;2023-09-19T10:22:12;25.40;82.20
34406;DHT22;20658;45.630;8.886;2023-09-19T10:24:44;25.30;82.50
34406;DHT22;20658;45.630;8.886;2023-09-19T10:27:16;25.30;82.20
34406;DHT22;20658;45.630;8.886;2023-09-19T10:29:51;25.40;82.00
34406;DHT22;20658;45.630;8.886;2023-09-19T10:32:28;25.60;81.80
34406;DHT22;20658;45.630;8.886;2023-09-19T10:35:06;26.00;81.80
34406;DHT22;20658;45.630;8.886;2023-09-19T10:37:36;26.10;80.20
34406;DHT22;20658;45.630;8.886;2023-09-19T10:40:11;26.10;80.00
34406;DHT22;20658;45.630;8.886;2023-09-19T10:42:48;26.10;79.90
34406;DHT22;20658;45.630;8.886;2023-09-19T10:45:23;26.20;79.20
34406;DHT22;20658;45.630;8.886;2023-09-19T10:47:53;26.40;78.70
34406;DHT22;20658;45.630;8.886;2023-09-19T10:50:31;26.40;78.30
34406;DHT22;20658;45.630;8.886;2023-09-19T10:53:07;26.40;78.10
34406;DHT22;20658;45.630;8.886;2023-09-19T10:55:38;26.50;79.90
34406;DHT22;20658;45.630;8.886;2023-09-19T10:58:09;26.50;77.50
34406;DHT22;20658;45.630;8.886;2023-09-19T11:00:52;26.30;77.70
34406;DHT22;20658;45.630;8.886;2023-09-19T11:03:23;26.10;77.40
34406;DHT22;20658;45.630;8.886;2023-09-19T11:06:02;26.10;78.30
34406;DHT22;20658;45.630;8.886;2023-09-19T11:08:58;26.20;78.50
34406;DHT22;20658;45.630;8.886;2023-09-19T11:11:53;26.40;77.30
34406;DHT22;20658;45.630;8.886;2023-09-19T11:14:40;26.20;76.50
34406;DHT22;20658;45.630;8.886;2023-09-19T11:17:40;26.30;78.00
34406;DHT22;20658;45.630;8.886;2023-09-19T11:20:24;26.20;77.60
34406;DHT22;20658;45.630;8.886;2023-09-19T11:23:20;26.50;78.30
34406;DHT22;20658;45.630;8.886;2023-09-19T11:26:02;26.60;77.30
34406;DHT22;20658;45.630;8.886;2023-09-19T11:28:32;26.90;76.00
34406;DHT22;20658;45.630;8.886;2023-09-19T11:34:40;27.10;77.90
34406;DHT22;20658;45.630;8.886;2023-09-19T11:40:47;27.40;76.30
34406;DHT22;20658;45.630;8.886;2023-09-19T11:44:33;27.20;76.90
34406;DHT22;20658;45.630;8.886;2023-09-19T11:47:10;27.10;77.90
34406;DHT22;20658;45.630;8.886;2023-09-19T11:49:40;27.40;77.30
34406;DHT22;20658;45.630;8.886;2023-09-19T11:52:21;27.50;76.50
34406;DHT22;20658;45.630;8.886;2023-09-19T11:54:55;27.60;76.70
34406;DHT22;20658;45.630;8.886;2023-09-19T11:57:25;27.70;76.00
34406;DHT22;20658;45.630;8.886;2023-09-19T11:59:54;27.70;75.50
34406;DHT22;20658;45.630;8.886;2023-09-19T12:02:39;27.70;75.20
34406;DHT22;20658;45.630;8.886;2023-09-19T12:05:10;27.80;74.90
34406;DHT22;20658;45.630;8.886;2023-09-19T12:07:44;27.90;73.60
34406;DHT22;20658;45.630;8.886;2023-09-19T12:10:20;27.80;72.00
34406;DHT22;20658;45.630;8.886;2023-09-19T12:12:55;27.60;71.90
34406;DHT22;20658;45.630;8.886;2023-09-19T12:15:31;27.60;71.30
34406;DHT22;20658;45.630;8.886;2023-09-19T12:18:25;27.70;70.90
34406;DHT22;20658;45.630;8.886;2023-09-19T12:21:00;27.60;71.30
34406;DHT22;20658;45.630;8.886;2023-09-19T12:23:29;27.40;72.10
34406;DHT22;20658;45.630;8.886;2023-09-19T12:25:58;27.40;72.10
34406;DHT22;20658;45.630;8.886;2023-09-19T12:28:31;27.50;73.20
34406;DHT22;20658;45.630;8.886;2023-09-19T12:31:14;27.70;72.30
34406;DHT22;20658;45.630;8.886;2023-09-19T12:33:46;27.70;72.30
34406;DHT22;20658;45.630;8.886;2023-09-19T12:36:22;27.90;72.80
34406;DHT22;20658;45.630;8.886;2023-09-19T12:38:56;28.10;72.50
34406;DHT22;20658;45.630;8.886;2023-09-19T12:41:26;27.90;71.70
34406;DHT22;20658;45.630;8.886;2023-09-19T12:43:55;28.00;72.80
34406;DHT22;20658;45.630;8.886;2023-09-19T12:46:30;28.00;72.80
34406;DHT22;20658;45.630;8.886;2023-09-19T12:49:21;28.00;73.60
34406;DHT22;20658;45.630;8.886;2023-09-19T12:51:55;27.80;71.90
34406;DHT22;20658;45.630;8.886;2023-09-19T12:54:38;28.00;73.20
34406;DHT22;20658;45.630;8.886;2023-09-19T12:57:07;28.00;71.30
34406;DHT22;20658;45.630;8.886;2023-09-19T12:59:40;28.10;71.30
34406;DHT22;20658;45.630;8.886;2023-09-19T13:02:17;28.30;70.00
34406;DHT22;20658;45.630;8.886;2023-09-19T13:04:57;28.40;70.40
34406;DHT22;20658;45.630;8.886;2023-09-19T13:07:53;28.30;71.10
34406;DHT22;20658;45.630;8.886;2023-09-19T13:10:32;28.40;71.30
34406;DHT22;20658;45.630;8.886;2023-09-19T13:13:22;28.40;70.80
34406;DHT22;20658;45.630;8.886;2023-09-19T13:16:01;28.40;71.30
34406;DHT22;20658;45.630;8.886;2023-09-19T13:18:31;28.40;69.90
34406;DHT22;20658;45.630;8.886;2023-09-19T13:21:10;28.40;71.00
34406;DHT22;20658;45.630;8.886;2023-09-19T13:23:46;28.40;70.80
34406;DHT22;20658;45.630;8.886;2023-09-19T13:26:20;28.40;69.80
34406;DHT22;20658;45.630;8.886;2023-09-19T13:28:49;28.50;68.10
34406;DHT22;20658;45.630;8.886;2023-09-19T13:31:23;28.50;67.80
34406;DHT22;20658;45.630;8.886;2023-09-19T13:33:57;28.60;69.00
34406;DHT22;20658;45.630;8.886;2023-09-19T13:36:27;28.10;68.20
34406;DHT22;20658;45.630;8.886;2023-09-19T13:39:00;28.40;66.90
34406;DHT22;20658;45.630;8.886;2023-09-19T13:41:29;28.40;67.60
34406;DHT22;20658;45.630;8.886;2023-09-19T13:44:06;28.30;65.20
34406;DHT22;20658;45.630;8.886;2023-09-19T13:46:42;28.20;65.90
34406;DHT22;20658;45.630;8.886;2023-09-19T13:49:17;28.30;66.60
34406;DHT22;20658;45.630;8.886;2023-09-19T13:51:54;28.10;66.30
34406;DHT22;20658;45.630;8.886;2023-09-19T13:54:22;28.00;67.10
34406;DHT22;20658;45.630;8.886;2023-09-19T13:56:51;27.90;67.70
34406;DHT22;20658;45.630;8.886;2023-09-19T13:59:25;28.10;68.00
34406;DHT22;20658;45.630;8.886;2023-09-19T14:01:55;28.10;67.50
34406;DHT22;20658;45.630;8.886;2023-09-19T14:04:24;28.10;68.00
34406;DHT22;20658;45.630;8.886;2023-09-19T14:06:54;28.10;68.00
34406;DHT22;20658;45.630;8.886;2023-09-19T14:09:24;28.20;68.60
34406;DHT22;20658;45.630;8.886;2023-09-19T14:11:57;28.40;68.60
34406;DHT22;20658;45.630;8.886;2023-09-19T14:14:26;28.50;67.50
34406;DHT22;20658;45.630;8.886;2023-09-19T14:17:10;28.70;66.20
34406;DHT22;20658;45.630;8.886;2023-09-19T14:19:49;28.70;65.20
34406;DHT22;20658;45.630;8.886;2023-09-19T14:22:19;28.70;66.10
34406;DHT22;20658;45.630;8.886;2023-09-19T14:24:47;28.30;65.80
34406;DHT22;20658;45.630;8.886;2023-09-19T14:27:21;28.20;67.10
34406;DHT22;20658;45.630;8.886;2023-09-19T14:29:54;28.10;67.20
34406;DHT22;20658;45.630;8.886;2023-09-19T14:32:23;28.10;67.40
34406;DHT22;20658;45.630;8.886;2023-09-19T14:34:53;28.30;67.10
34406;DHT22;20658;45.630;8.886;2023-09-19T14:37:23;28.20;65.90
34406;DHT22;20658;45.630;8.886;2023-09-19T14:39:51;28.30;66.90
34406;DHT22;20658;45.630;8.886;2023-09-19T14:42:20;28.30;66.70
34406;DHT22;20658;45.630;8.886;2023-09-19T14:44:48;28.30;65.30
34406;DHT22;20658;45.630;8.886;2023-09-19T14:47:17;28.20;65.50
34406;DHT22;20658;45.630;8.886;2023-09-19T14:49:53;28.20;66.90
34406;DHT22;20658;45.630;8.886;2023-09-19T14:52:28;28.30;66.60
34406;DHT22;20658;45.630;8.886;2023-09-19T14:54:56;28.30;65.20
34406;DHT22;20658;45.630;8.886;2023-09-19T14:57:25;28.20;65.40
34406;DHT22;20658;45.630;8.886;2023-09-19T14:59:58;28.30;66.30
34406;DHT22;20658;45.630;8.886;2023-09-19T15:02:33;28.20;66.00
34406;DHT22;20658;45.630;8.886;2023-09-19T15:05:02;28.40;66.10
34406;DHT22;20658;45.630;8.886;2023-09-19T15:07:31;28.40;66.40
34406;DHT22;20658;45.630;8.886;2023-09-19T15:10:05;28.10;65.20
34406;DHT22;20658;45.630;8.886;2023-09-19T15:12:41;28.10;66.30
34406;DHT22;20658;45.630;8.886;2023-09-19T15:15:15;28.10;66.80
34406;DHT22;20658;45.630;8.886;2023-09-19T15:17:48;28.10;65.60
34406;DHT22;20658;45.630;8.886;2023-09-19T15:20:17;28.10;66.00
34406;DHT22;20658;45.630;8.886;2023-09-19T15:22:52;28.10;66.00
34406;DHT22;20658;45.630;8.886;2023-09-19T15:25:25;28.00;66.60
34406;DHT22;20658;45.630;8.886;2023-09-19T15:27:59;28.00;66.60
34406;DHT22;20658;45.630;8.886;2023-09-19T15:30:39;28.10;66.30
34406;DHT22;20658;45.630;8.886;2023-09-19T15:33:08;28.10;66.80
34406;DHT22;20658;45.630;8.886;2023-09-19T15:35:36;28.10;67.60
34406;DHT22;20658;45.630;8.886;2023-09-19T15:38:06;28.00;68.40
34406;DHT22;20658;45.630;8.886;2023-09-19T15:40:46;28.10;69.00
34406;DHT22;20658;45.630;8.886;2023-09-19T15:43:20;28.00;68.70
34406;DHT22;20658;45.630;8.886;2023-09-19T15:45:49;28.00;69.30
34406;DHT22;20658;45.630;8.886;2023-09-19T15:48:23;28.00;70.10
34406;DHT22;20658;45.630;8.886;2023-09-19T15:50:52;28.00;70.30
34406;DHT22;20658;45.630;8.886;2023-09-19T15:53:27;28.00;69.80
34406;DHT22;20658;45.630;8.886;2023-09-19T15:56:05;28.00;70.50
34406;DHT22;20658;45.630;8.886;2023-09-19T15:58:40;27.90;69.60
34406;DHT22;20658;45.630;8.886;2023-09-19T16:01:14;27.90;69.80
34406;DHT22;20658;45.630;8.886;2023-09-19T16:03:44;27.90;70.00
34406;DHT22;20658;45.630;8.886;2023-09-19T16:06:22;27.80;70.40
34406;DHT22;20658;45.630;8.886;2023-09-19T16:08:59;27.80;70.30
34406;DHT22;20658;45.630;8.886;2023-09-19T16:11:35;27.80;70.80
34406;DHT22;20658;45.630;8.886;2023-09-19T16:14:04;27.70;70.30
34406;DHT22;20658;45.630;8.886;2023-09-19T16:16:39;27.50;71.10
34406;DHT22;20658;45.630;8.886;2023-09-19T16:19:13;27.50;71.40